sensor_id;sensor_type;location;lat;lon;timestamp;P1;durP1;ratioP1;P2;durP2;ratioP2
77507;SDS011;66618;42.666;23.360;2023-04-07T00:01:52;10.68;;;6.95;;
77507;SDS011;66618;42.666;23.360;2023-04-07T00:04:17;13.55;;;6.93;;
77507;SDS011;66618;42.666;23.360;2023-04-07T00:06:43;12.25;;;6.88;;
77507;SDS011;66618;42.666;23.360;2023-04-07T00:09:09;11.00;;;6.45;;
77507;SDS011;66618;42.666;23.360;2023-04-07T00:11:35;11.18;;;6.97;;
77507;SDS011;66618;42.666;23.360;2023-04-07T00:14:01;13.73;;;7.03;;
77507;SDS011;66618;42.666;23.360;2023-04-07T00:16:26;12.52;;;6.63;;
77507;SDS011;66618;42.666;23.360;2023-04-07T00:18:51;8.63;;;5.32;;
77507;SDS011;66618;42.666;23.360;2023-04-07T00:21:17;12.02;;;7.22;;
77507;SDS011;66618;42.666;23.360;2023-04-07T00:23:42;11.57;;;6.55;;
77507;SDS011;66618;42.666;23.360;2023-04-07T00:26:07;11.70;;;6.50;;
77507;SDS011;66618;42.666;23.360;2023-04-07T00:28:33;11.45;;;6.35;;
77507;SDS011;66618;42.666;23.360;2023-04-07T00:30:58;13.75;;;6.30;;
77507;SDS011;66618;42.666;23.360;2023-04-07T00:33:24;9.93;;;6.07;;
77507;SDS011;66618;42.666;23.360;2023-04-07T00:35:50;11.45;;;6.65;;
77507;SDS011;66618;42.666;23.360;2023-04-07T00:38:15;12.52;;;6.85;;
77507;SDS011;66618;42.666;23.360;2023-04-07T00:40:41;10.75;;;6.60;;
77507;SDS011;66618;42.666;23.360;2023-04-07T00:43:06;14.35;;;7.00;;
77507;SDS011;66618;42.666;23.360;2023-04-07T00:45:31;9.88;;;6.80;;
77507;SDS011;66618;42.666;23.360;2023-04-07T00:47:57;12.23;;;7.18;;
77507;SDS011;66618;42.666;23.360;2023-04-07T00:50:22;13.20;;;6.57;;
77507;SDS011;66618;42.666;23.360;2023-04-07T00:52:48;17.25;;;9.48;;
77507;SDS011;66618;42.666;23.360;2023-04-07T00:55:14;28.70;;;16.15;;
77507;SDS011;66618;42.666;23.360;2023-04-07T00:57:40;26.27;;;13.45;;
77507;SDS011;66618;42.666;23.360;2023-04-07T01:00:06;18.83;;;9.23;;
77507;SDS011;66618;42.666;23.360;2023-04-07T01:02:42;31.55;;;17.02;;
77507;SDS011;66618;42.666;23.360;2023-04-07T01:05:15;22.63;;;11.00;;
77507;SDS011;66618;42.666;23.360;2023-04-07T01:10:16;19.65;;;10.98;;
77507;SDS011;66618;42.666;23.360;2023-04-07T01:12:48;27.98;;;15.77;;
77507;SDS011;66618;42.666;23.360;2023-04-07T01:15:19;27.98;;;13.05;;
77507;SDS011;66618;42.666;23.360;2023-04-07T01:17:47;22.00;;;10.50;;
77507;SDS011;66618;42.666;23.360;2023-04-07T01:20:16;23.02;;;13.85;;
77507;SDS011;66618;42.666;23.360;2023-04-07T01:22:54;17.77;;;9.52;;
77507;SDS011;66618;42.666;23.360;2023-04-07T01:31:01;22.80;;;10.93;;
77507;SDS011;66618;42.666;23.360;2023-04-07T01:33:28;20.25;;;11.43;;
77507;SDS011;66618;42.666;23.360;2023-04-07T01:35:56;23.30;;;14.45;;
77507;SDS011;66618;42.666;23.360;2023-04-07T01:38:23;22.00;;;11.18;;
77507;SDS011;66618;42.666;23.360;2023-04-07T01:40:50;21.92;;;12.35;;
77507;SDS011;66618;42.666;23.360;2023-04-07T01:43:16;23.15;;;11.10;;
77507;SDS011;66618;42.666;23.360;2023-04-07T01:45:42;25.30;;;13.52;;
77507;SDS011;66618;42.666;23.360;2023-04-07T01:48:08;24.33;;;12.18;;
77507;SDS011;66618;42.666;23.360;2023-04-07T01:50:34;16.05;;;8.02;;
77507;SDS011;66618;42.666;23.360;2023-04-07T01:53:00;31.10;;;15.15;;
77507;SDS011;66618;42.666;23.360;2023-04-07T01:55:25;28.63;;;11.57;;
77507;SDS011;66618;42.666;23.360;2023-04-07T01:57:54;23.55;;;11.80;;
77507;SDS011;66618;42.666;23.360;2023-04-07T02:00:19;23.45;;;10.50;;
77507;SDS011;66618;42.666;23.360;2023-04-07T02:02:45;21.95;;;11.88;;
77507;SDS011;66618;42.666;23.360;2023-04-07T02:05:14;24.55;;;11.90;;
77507;SDS011;66618;42.666;23.360;2023-04-07T02:07:49;20.92;;;10.82;;
77507;SDS011;66618;42.666;23.360;2023-04-07T02:10:20;27.23;;;13.13;;
77507;SDS011;66618;42.666;23.360;2023-04-07T02:12:47;19.73;;;10.57;;
77507;SDS011;66618;42.666;23.360;2023-04-07T02:15:13;24.90;;;12.30;;
77507;SDS011;66618;42.666;23.360;2023-04-07T02:17:40;24.65;;;13.13;;
77507;SDS011;66618;42.666;23.360;2023-04-07T02:20:08;14.13;;;7.93;;
77507;SDS011;66618;42.666;23.360;2023-04-07T02:22:36;18.77;;;9.30;;
77507;SDS011;66618;42.666;23.360;2023-04-07T02:25:02;18.63;;;10.57;;
77507;SDS011;66618;42.666;23.360;2023-04-07T02:27:44;18.52;;;10.05;;
77507;SDS011;66618;42.666;23.360;2023-04-07T02:30:10;22.80;;;12.23;;
77507;SDS011;66618;42.666;23.360;2023-04-07T02:32:36;20.10;;;10.93;;
77507;SDS011;66618;42.666;23.360;2023-04-07T02:35:01;23.52;;;10.85;;
77507;SDS011;66618;42.666;23.360;2023-04-07T02:37:26;22.00;;;11.65;;
77507;SDS011;66618;42.666;23.360;2023-04-07T02:39:52;26.88;;;13.10;;
77507;SDS011;66618;42.666;23.360;2023-04-07T02:42:17;26.58;;;11.60;;
77507;SDS011;66618;42.666;23.360;2023-04-07T02:44:43;20.10;;;10.82;;
77507;SDS011;66618;42.666;23.360;2023-04-07T02:47:08;27.35;;;14.63;;
77507;SDS011;66618;42.666;23.360;2023-04-07T02:49:34;26.17;;;12.35;;
77507;SDS011;66618;42.666;23.360;2023-04-07T02:51:59;20.05;;;10.98;;
77507;SDS011;66618;42.666;23.360;2023-04-07T02:54:25;15.98;;;9.02;;
77507;SDS011;66618;42.666;23.360;2023-04-07T02:56:50;20.42;;;11.43;;
77507;SDS011;66618;42.666;23.360;2023-04-07T02:59:15;22.75;;;11.93;;
77507;SDS011;66618;42.666;23.360;2023-04-07T03:01:41;27.33;;;13.88;;
77507;SDS011;66618;42.666;23.360;2023-04-07T03:04:06;21.83;;;10.82;;
77507;SDS011;66618;42.666;23.360;2023-04-07T03:06:31;23.90;;;10.77;;
77507;SDS011;66618;42.666;23.360;2023-04-07T03:08:57;20.98;;;11.25;;
77507;SDS011;66618;42.666;23.360;2023-04-07T03:11:22;19.17;;;10.55;;
77507;SDS011;66618;42.666;23.360;2023-04-07T03:13:48;20.17;;;10.95;;
77507;SDS011;66618;42.666;23.360;2023-04-07T03:16:13;23.92;;;11.70;;
77507;SDS011;66618;42.666;23.360;2023-04-07T03:18:39;23.48;;;9.80;;
77507;SDS011;66618;42.666;23.360;2023-04-07T03:21:04;18.30;;;9.10;;
77507;SDS011;66618;42.666;23.360;2023-04-07T03:23:30;22.10;;;10.50;;
77507;SDS011;66618;42.666;23.360;2023-04-07T03:25:55;20.52;;;10.88;;
77507;SDS011;66618;42.666;23.360;2023-04-07T03:28:21;22.13;;;10.15;;
77507;SDS011;66618;42.666;23.360;2023-04-07T03:30:47;17.73;;;9.85;;
77507;SDS011;66618;42.666;23.360;2023-04-07T03:33:12;17.88;;;9.73;;
77507;SDS011;66618;42.666;23.360;2023-04-07T03:35:38;20.92;;;10.43;;
77507;SDS011;66618;42.666;23.360;2023-04-07T03:38:03;19.00;;;10.52;;
77507;SDS011;66618;42.666;23.360;2023-04-07T03:40:28;20.73;;;10.07;;
77507;SDS011;66618;42.666;23.360;2023-04-07T03:42:54;16.63;;;9.25;;
77507;SDS011;66618;42.666;23.360;2023-04-07T03:45:19;22.38;;;9.98;;
77507;SDS011;66618;42.666;23.360;2023-04-07T03:47:45;16.25;;;9.18;;
77507;SDS011;66618;42.666;23.360;2023-04-07T03:50:10;16.63;;;8.48;;
77507;SDS011;66618;42.666;23.360;2023-04-07T03:52:35;14.25;;;7.82;;
77507;SDS011;66618;42.666;23.360;2023-04-07T03:55:01;11.05;;;6.63;;
77507;SDS011;66618;42.666;23.360;2023-04-07T03:57:26;11.38;;;6.25;;
77507;SDS011;66618;42.666;23.360;2023-04-07T03:59:52;11.30;;;6.70;;
77507;SDS011;66618;42.666;23.360;2023-04-07T04:02:17;9.90;;;6.53;;
77507;SDS011;66618;42.666;23.360;2023-04-07T04:04:43;23.20;;;13.27;;
77507;SDS011;66618;42.666;23.360;2023-04-07T04:07:08;21.20;;;12.68;;
77507;SDS011;66618;42.666;23.360;2023-04-07T04:09:33;14.73;;;8.38;;
77507;SDS011;66618;42.666;23.360;2023-04-07T04:11:59;26.45;;;12.65;;
77507;SDS011;66618;42.666;23.360;2023-04-07T04:14:25;26.10;;;15.02;;
77507;SDS011;66618;42.666;23.360;2023-04-07T04:16:50;20.15;;;10.60;;
77507;SDS011;66618;42.666;23.360;2023-04-07T04:19:16;20.95;;;11.43;;
77507;SDS011;66618;42.666;23.360;2023-04-07T04:21:41;26.45;;;13.93;;
77507;SDS011;66618;42.666;23.360;2023-04-07T04:24:06;28.40;;;15.45;;
77507;SDS011;66618;42.666;23.360;2023-04-07T04:26:32;24.38;;;13.65;;
77507;SDS011;66618;42.666;23.360;2023-04-07T04:28:57;29.55;;;12.55;;
77507;SDS011;66618;42.666;23.360;2023-04-07T04:31:23;24.15;;;12.80;;
77507;SDS011;66618;42.666;23.360;2023-04-07T04:33:48;25.08;;;11.48;;
77507;SDS011;66618;42.666;23.360;2023-04-07T04:36:13;26.25;;;14.63;;
77507;SDS011;66618;42.666;23.360;2023-04-07T04:38:39;14.57;;;9.02;;
77507;SDS011;66618;42.666;23.360;2023-04-07T04:41:05;22.83;;;11.75;;
77507;SDS011;66618;42.666;23.360;2023-04-07T04:43:30;18.52;;;10.27;;
77507;SDS011;66618;42.666;23.360;2023-04-07T04:45:56;32.17;;;17.67;;
77507;SDS011;66618;42.666;23.360;2023-04-07T04:48:22;27.25;;;14.23;;
77507;SDS011;66618;42.666;23.360;2023-04-07T04:50:47;24.38;;;11.18;;
77507;SDS011;66618;42.666;23.360;2023-04-07T04:53:12;22.40;;;10.45;;
77507;SDS011;66618;42.666;23.360;2023-04-07T04:55:38;20.20;;;8.70;;
77507;SDS011;66618;42.666;23.360;2023-04-07T04:58:05;26.85;;;15.68;;
77507;SDS011;66618;42.666;23.360;2023-04-07T05:00:30;21.27;;;11.55;;
77507;SDS011;66618;42.666;23.360;2023-04-07T05:02:55;18.42;;;9.48;;
77507;SDS011;66618;42.666;23.360;2023-04-07T05:05:21;19.00;;;11.23;;
77507;SDS011;66618;42.666;23.360;2023-04-07T05:07:46;19.52;;;10.57;;
77507;SDS011;66618;42.666;23.360;2023-04-07T05:10:12;21.15;;;11.18;;
77507;SDS011;66618;42.666;23.360;2023-04-07T05:12:37;21.15;;;10.25;;
77507;SDS011;66618;42.666;23.360;2023-04-07T05:15:03;22.48;;;13.13;;
77507;SDS011;66618;42.666;23.360;2023-04-07T05:17:28;20.08;;;11.13;;
77507;SDS011;66618;42.666;23.360;2023-04-07T05:19:54;20.10;;;11.68;;
77507;SDS011;66618;42.666;23.360;2023-04-07T05:22:19;19.80;;;11.00;;
77507;SDS011;66618;42.666;23.360;2023-04-07T05:24:44;22.38;;;12.38;;
77507;SDS011;66618;42.666;23.360;2023-04-07T05:27:10;23.63;;;12.10;;
77507;SDS011;66618;42.666;23.360;2023-04-07T05:29:35;22.85;;;13.05;;
77507;SDS011;66618;42.666;23.360;2023-04-07T05:32:00;16.75;;;9.55;;
77507;SDS011;66618;42.666;23.360;2023-04-07T05:34:26;19.00;;;11.57;;
77507;SDS011;66618;42.666;23.360;2023-04-07T05:36:52;25.15;;;13.02;;
77507;SDS011;66618;42.666;23.360;2023-04-07T05:39:17;27.25;;;14.88;;
77507;SDS011;66618;42.666;23.360;2023-04-07T05:41:42;21.35;;;11.73;;
77507;SDS011;66618;42.666;23.360;2023-04-07T05:44:08;26.52;;;16.25;;
77507;SDS011;66618;42.666;23.360;2023-04-07T05:46:33;18.70;;;10.65;;
77507;SDS011;66618;42.666;23.360;2023-04-07T05:48:59;19.88;;;10.13;;
77507;SDS011;66618;42.666;23.360;2023-04-07T05:51:24;24.70;;;12.07;;
77507;SDS011;66618;42.666;23.360;2023-04-07T05:53:50;19.83;;;10.40;;
77507;SDS011;66618;42.666;23.360;2023-04-07T05:56:16;19.80;;;10.43;;
77507;SDS011;66618;42.666;23.360;2023-04-07T05:58:41;20.70;;;11.98;;
77507;SDS011;66618;42.666;23.360;2023-04-07T06:01:07;21.17;;;10.77;;
77507;SDS011;66618;42.666;23.360;2023-04-07T06:03:32;25.35;;;11.88;;
77507;SDS011;66618;42.666;23.360;2023-04-07T06:05:57;24.17;;;14.98;;
77507;SDS011;66618;42.666;23.360;2023-04-07T06:08:23;23.00;;;13.70;;
77507;SDS011;66618;42.666;23.360;2023-04-07T06:10:48;19.90;;;12.60;;
77507;SDS011;66618;42.666;23.360;2023-04-07T06:13:13;20.15;;;11.00;;
77507;SDS011;66618;42.666;23.360;2023-04-07T06:15:39;17.27;;;9.50;;
77507;SDS011;66618;42.666;23.360;2023-04-07T06:18:04;17.20;;;9.45;;
77507;SDS011;66618;42.666;23.360;2023-04-07T06:20:30;17.02;;;11.30;;
77507;SDS011;66618;42.666;23.360;2023-04-07T06:22:55;16.70;;;11.13;;
77507;SDS011;66618;42.666;23.360;2023-04-07T06:25:21;16.73;;;11.30;;
77507;SDS011;66618;42.666;23.360;2023-04-07T06:27:46;15.20;;;11.35;;
77507;SDS011;66618;42.666;23.360;2023-04-07T06:30:11;18.88;;;11.20;;
77507;SDS011;66618;42.666;23.360;2023-04-07T06:32:37;15.48;;;10.25;;
77507;SDS011;66618;42.666;23.360;2023-04-07T06:35:03;16.58;;;10.07;;
77507;SDS011;66618;42.666;23.360;2023-04-07T06:37:28;15.23;;;10.57;;
77507;SDS011;66618;42.666;23.360;2023-04-07T06:39:54;18.77;;;10.68;;
77507;SDS011;66618;42.666;23.360;2023-04-07T06:42:19;16.77;;;10.10;;
77507;SDS011;66618;42.666;23.360;2023-04-07T06:44:45;19.63;;;10.10;;
77507;SDS011;66618;42.666;23.360;2023-04-07T06:47:10;16.30;;;11.98;;
77507;SDS011;66618;42.666;23.360;2023-04-07T06:49:36;13.63;;;8.85;;
77507;SDS011;66618;42.666;23.360;2023-04-07T06:52:01;17.65;;;10.82;;
77507;SDS011;66618;42.666;23.360;2023-04-07T06:54:27;16.80;;;12.27;;
77507;SDS011;66618;42.666;23.360;2023-04-07T06:56:52;20.20;;;11.48;;
77507;SDS011;66618;42.666;23.360;2023-04-07T06:59:18;17.17;;;10.20;;
77507;SDS011;66618;42.666;23.360;2023-04-07T07:01:43;16.67;;;11.07;;
77507;SDS011;66618;42.666;23.360;2023-04-07T07:04:09;15.60;;;9.10;;
77507;SDS011;66618;42.666;23.360;2023-04-07T07:06:34;12.82;;;8.40;;
77507;SDS011;66618;42.666;23.360;2023-04-07T07:09:00;15.38;;;9.50;;
77507;SDS011;66618;42.666;23.360;2023-04-07T07:11:27;13.52;;;8.00;;
77507;SDS011;66618;42.666;23.360;2023-04-07T07:13:52;21.50;;;11.55;;
77507;SDS011;66618;42.666;23.360;2023-04-07T07:16:18;15.27;;;8.73;;
77507;SDS011;66618;42.666;23.360;2023-04-07T07:18:43;15.02;;;9.27;;
77507;SDS011;66618;42.666;23.360;2023-04-07T07:21:08;13.40;;;8.45;;
77507;SDS011;66618;42.666;23.360;2023-04-07T07:23:34;14.82;;;8.98;;
77507;SDS011;66618;42.666;23.360;2023-04-07T07:25:59;14.88;;;8.80;;
77507;SDS011;66618;42.666;23.360;2023-04-07T07:28:25;9.63;;;6.60;;
77507;SDS011;66618;42.666;23.360;2023-04-07T07:30:50;13.82;;;6.45;;
77507;SDS011;66618;42.666;23.360;2023-04-07T07:33:16;10.10;;;6.18;;
77507;SDS011;66618;42.666;23.360;2023-04-07T07:35:41;8.70;;;5.32;;
77507;SDS011;66618;42.666;23.360;2023-04-07T07:38:06;9.32;;;5.35;;
77507;SDS011;66618;42.666;23.360;2023-04-07T07:40:32;8.77;;;5.30;;
77507;SDS011;66618;42.666;23.360;2023-04-07T07:42:58;8.82;;;5.18;;
77507;SDS011;66618;42.666;23.360;2023-04-07T07:45:24;9.27;;;5.68;;
77507;SDS011;66618;42.666;23.360;2023-04-07T07:47:50;6.93;;;4.82;;
77507;SDS011;66618;42.666;23.360;2023-04-07T07:50:15;7.47;;;5.07;;
77507;SDS011;66618;42.666;23.360;2023-04-07T07:52:40;10.25;;;5.13;;
77507;SDS011;66618;42.666;23.360;2023-04-07T07:55:07;9.13;;;5.00;;
77507;SDS011;66618;42.666;23.360;2023-04-07T07:57:34;7.47;;;5.10;;
77507;SDS011;66618;42.666;23.360;2023-04-07T08:00:00;6.88;;;4.72;;
77507;SDS011;66618;42.666;23.360;2023-04-07T08:02:25;9.93;;;4.65;;
77507;SDS011;66618;42.666;23.360;2023-04-07T08:04:55;8.20;;;5.00;;
77507;SDS011;66618;42.666;23.360;2023-04-07T08:07:21;7.90;;;5.10;;
77507;SDS011;66618;42.666;23.360;2023-04-07T08:09:46;7.95;;;4.78;;
77507;SDS011;66618;42.666;23.360;2023-04-07T08:12:12;9.90;;;5.43;;
77507;SDS011;66618;42.666;23.360;2023-04-07T08:14:37;7.50;;;5.30;;
77507;SDS011;66618;42.666;23.360;2023-04-07T08:17:03;6.10;;;4.55;;
77507;SDS011;66618;42.666;23.360;2023-04-07T08:19:28;6.90;;;4.70;;
77507;SDS011;66618;42.666;23.360;2023-04-07T08:21:54;8.00;;;4.60;;
77507;SDS011;66618;42.666;23.360;2023-04-07T08:24:19;6.40;;;4.25;;
77507;SDS011;66618;42.666;23.360;2023-04-07T08:26:45;6.55;;;4.47;;
77507;SDS011;66618;42.666;23.360;2023-04-07T08:29:10;6.88;;;4.70;;
77507;SDS011;66618;42.666;23.360;2023-04-07T08:31:36;8.27;;;4.15;;
77507;SDS011;66618;42.666;23.360;2023-04-07T08:34:01;6.93;;;4.72;;
77507;SDS011;66618;42.666;23.360;2023-04-07T08:36:27;9.95;;;4.82;;
77507;SDS011;66618;42.666;23.360;2023-04-07T08:38:52;6.82;;;4.35;;
77507;SDS011;66618;42.666;23.360;2023-04-07T08:41:39;6.78;;;4.47;;
77507;SDS011;66618;42.666;23.360;2023-04-07T08:44:05;5.60;;;4.22;;
77507;SDS011;66618;42.666;23.360;2023-04-07T08:46:32;8.45;;;4.80;;
77507;SDS011;66618;42.666;23.360;2023-04-07T08:48:57;7.45;;;4.70;;
77507;SDS011;66618;42.666;23.360;2023-04-07T08:51:27;7.72;;;4.75;;
77507;SDS011;66618;42.666;23.360;2023-04-07T08:53:57;6.97;;;4.65;;
77507;SDS011;66618;42.666;23.360;2023-04-07T08:56:28;7.45;;;3.78;;
77507;SDS011;66618;42.666;23.360;2023-04-07T08:58:54;6.90;;;4.45;;
77507;SDS011;66618;42.666;23.360;2023-04-07T09:01:20;7.10;;;4.68;;
77507;SDS011;66618;42.666;23.360;2023-04-07T09:03:46;7.57;;;4.50;;
77507;SDS011;66618;42.666;23.360;2023-04-07T09:06:12;6.15;;;4.10;;
77507;SDS011;66618;42.666;23.360;2023-04-07T09:08:38;7.65;;;4.15;;
77507;SDS011;66618;42.666;23.360;2023-04-07T09:11:04;6.35;;;4.38;;
77507;SDS011;66618;42.666;23.360;2023-04-07T09:13:30;6.32;;;4.72;;
77507;SDS011;66618;42.666;23.360;2023-04-07T09:15:56;7.78;;;4.97;;
77507;SDS011;66618;42.666;23.360;2023-04-07T09:18:22;7.40;;;5.00;;
77507;SDS011;66618;42.666;23.360;2023-04-07T09:20:55;7.35;;;4.88;;
77507;SDS011;66618;42.666;23.360;2023-04-07T09:23:39;6.47;;;4.30;;
77507;SDS011;66618;42.666;23.360;2023-04-07T09:26:22;6.72;;;4.30;;
77507;SDS011;66618;42.666;23.360;2023-04-07T09:28:52;8.95;;;4.90;;
77507;SDS011;66618;42.666;23.360;2023-04-07T09:31:19;7.25;;;5.00;;
77507;SDS011;66618;42.666;23.360;2023-04-07T09:33:48;8.05;;;4.88;;
77507;SDS011;66618;42.666;23.360;2023-04-07T09:36:14;7.70;;;5.00;;
77507;SDS011;66618;42.666;23.360;2023-04-07T09:38:40;7.22;;;5.00;;
77507;SDS011;66618;42.666;23.360;2023-04-07T09:41:07;7.93;;;5.60;;
77507;SDS011;66618;42.666;23.360;2023-04-07T09:43:41;7.55;;;5.45;;
77507;SDS011;66618;42.666;23.360;2023-04-07T09:46:19;7.22;;;5.20;;
77507;SDS011;66618;42.666;23.360;2023-04-07T09:48:45;9.80;;;5.30;;
77507;SDS011;66618;42.666;23.360;2023-04-07T09:51:16;6.75;;;5.20;;
77507;SDS011;66618;42.666;23.360;2023-04-07T09:56:12;7.53;;;5.30;;
77507;SDS011;66618;42.666;23.360;2023-04-07T09:58:40;7.53;;;5.70;;
77507;SDS011;66618;42.666;23.360;2023-04-07T10:01:06;7.82;;;5.25;;
77507;SDS011;66618;42.666;23.360;2023-04-07T10:03:33;8.43;;;5.57;;
77507;SDS011;66618;42.666;23.360;2023-04-07T10:05:59;7.13;;;5.50;;
77507;SDS011;66618;42.666;23.360;2023-04-07T10:08:26;9.75;;;5.50;;
77507;SDS011;66618;42.666;23.360;2023-04-07T10:10:52;7.10;;;5.60;;
77507;SDS011;66618;42.666;23.360;2023-04-07T10:13:17;8.25;;;5.10;;
77507;SDS011;66618;42.666;23.360;2023-04-07T10:15:43;7.28;;;4.90;;
77507;SDS011;66618;42.666;23.360;2023-04-07T10:18:09;7.95;;;5.35;;
77507;SDS011;66618;42.666;23.360;2023-04-07T10:20:35;9.15;;;5.70;;
77507;SDS011;66618;42.666;23.360;2023-04-07T10:23:07;7.65;;;4.82;;
77507;SDS011;66618;42.666;23.360;2023-04-07T10:25:37;9.45;;;5.68;;
77507;SDS011;66618;42.666;23.360;2023-04-07T10:28:05;8.77;;;5.53;;
77507;SDS011;66618;42.666;23.360;2023-04-07T10:30:32;8.45;;;6.13;;
77507;SDS011;66618;42.666;23.360;2023-04-07T10:32:58;7.00;;;5.53;;
77507;SDS011;66618;42.666;23.360;2023-04-07T10:35:23;12.15;;;5.78;;
77507;SDS011;66618;42.666;23.360;2023-04-07T10:40:41;9.52;;;5.38;;
77507;SDS011;66618;42.666;23.360;2023-04-07T10:43:07;9.95;;;5.85;;
77507;SDS011;66618;42.666;23.360;2023-04-07T10:48:10;9.30;;;6.03;;
77507;SDS011;66618;42.666;23.360;2023-04-07T10:50:37;8.73;;;5.80;;
77507;SDS011;66618;42.666;23.360;2023-04-07T10:53:09;7.35;;;5.88;;
77507;SDS011;66618;42.666;23.360;2023-04-07T10:55:37;8.50;;;6.05;;
77507;SDS011;66618;42.666;23.360;2023-04-07T10:58:12;10.05;;;6.22;;
77507;SDS011;66618;42.666;23.360;2023-04-07T11:03:22;8.63;;;5.63;;
77507;SDS011;66618;42.666;23.360;2023-04-07T11:05:48;8.27;;;5.90;;
77507;SDS011;66618;42.666;23.360;2023-04-07T11:08:13;7.82;;;5.82;;
77507;SDS011;66618;42.666;23.360;2023-04-07T11:10:39;9.98;;;5.85;;
77507;SDS011;66618;42.666;23.360;2023-04-07T11:13:06;7.70;;;5.80;;
77507;SDS011;66618;42.666;23.360;2023-04-07T11:15:35;8.43;;;5.68;;
77507;SDS011;66618;42.666;23.360;2023-04-07T11:18:05;9.32;;;6.05;;
77507;SDS011;66618;42.666;23.360;2023-04-07T11:23:05;9.27;;;6.10;;
77507;SDS011;66618;42.666;23.360;2023-04-07T11:25:31;8.32;;;5.90;;
77507;SDS011;66618;42.666;23.360;2023-04-07T11:27:57;10.65;;;6.05;;
77507;SDS011;66618;42.666;23.360;2023-04-07T11:30:23;8.45;;;6.50;;
77507;SDS011;66618;42.666;23.360;2023-04-07T11:32:50;10.95;;;5.90;;
77507;SDS011;66618;42.666;23.360;2023-04-07T11:35:15;9.95;;;5.75;;
77507;SDS011;66618;42.666;23.360;2023-04-07T11:37:41;8.85;;;6.40;;
77507;SDS011;66618;42.666;23.360;2023-04-07T11:40:06;9.85;;;6.03;;
77507;SDS011;66618;42.666;23.360;2023-04-07T11:42:33;10.25;;;7.13;;
77507;SDS011;66618;42.666;23.360;2023-04-07T11:44:59;12.05;;;7.10;;
77507;SDS011;66618;42.666;23.360;2023-04-07T11:47:37;8.45;;;6.13;;
77507;SDS011;66618;42.666;23.360;2023-04-07T11:50:04;9.43;;;6.60;;
77507;SDS011;66618;42.666;23.360;2023-04-07T11:52:40;9.35;;;6.22;;
77507;SDS011;66618;42.666;23.360;2023-04-07T11:55:15;12.32;;;6.65;;
77507;SDS011;66618;42.666;23.360;2023-04-07T11:57:42;11.07;;;6.55;;
77507;SDS011;66618;42.666;23.360;2023-04-07T12:00:08;10.95;;;6.88;;
77507;SDS011;66618;42.666;23.360;2023-04-07T12:02:35;8.48;;;5.63;;
77507;SDS011;66618;42.666;23.360;2023-04-07T12:05:01;8.65;;;6.38;;
77507;SDS011;66618;42.666;23.360;2023-04-07T12:07:26;8.05;;;5.60;;
77507;SDS011;66618;42.666;23.360;2023-04-07T12:09:52;11.52;;;7.57;;
77507;SDS011;66618;42.666;23.360;2023-04-07T12:12:25;10.63;;;7.10;;
77507;SDS011;66618;42.666;23.360;2023-04-07T12:14:51;9.43;;;6.53;;
77507;SDS011;66618;42.666;23.360;2023-04-07T12:17:24;8.63;;;6.00;;
77507;SDS011;66618;42.666;23.360;2023-04-07T12:22:16;9.75;;;6.43;;
77507;SDS011;66618;42.666;23.360;2023-04-07T12:24:42;8.27;;;5.93;;
77507;SDS011;66618;42.666;23.360;2023-04-07T12:27:07;8.93;;;6.28;;
77507;SDS011;66618;42.666;23.360;2023-04-07T12:29:33;11.32;;;6.78;;
77507;SDS011;66618;42.666;23.360;2023-04-07T12:31:59;12.10;;;7.95;;
77507;SDS011;66618;42.666;23.360;2023-04-07T12:34:25;11.70;;;7.60;;
77507;SDS011;66618;42.666;23.360;2023-04-07T12:36:52;8.38;;;5.85;;
77507;SDS011;66618;42.666;23.360;2023-04-07T12:39:17;7.85;;;6.35;;
77507;SDS011;66618;42.666;23.360;2023-04-07T12:41:43;10.00;;;7.13;;
77507;SDS011;66618;42.666;23.360;2023-04-07T12:44:18;9.77;;;6.45;;
77507;SDS011;66618;42.666;23.360;2023-04-07T12:46:44;11.93;;;7.45;;
77507;SDS011;66618;42.666;23.360;2023-04-07T12:49:09;11.25;;;7.50;;
77507;SDS011;66618;42.666;23.360;2023-04-07T12:51:35;10.75;;;6.95;;
77507;SDS011;66618;42.666;23.360;2023-04-07T12:54:01;10.35;;;7.35;;
77507;SDS011;66618;42.666;23.360;2023-04-07T12:56:27;11.07;;;7.40;;
77507;SDS011;66618;42.666;23.360;2023-04-07T12:58:53;10.45;;;7.40;;
77507;SDS011;66618;42.666;23.360;2023-04-07T13:01:18;9.73;;;7.00;;
77507;SDS011;66618;42.666;23.360;2023-04-07T13:03:44;9.88;;;7.20;;
77507;SDS011;66618;42.666;23.360;2023-04-07T13:06:11;9.93;;;7.22;;
77507;SDS011;66618;42.666;23.360;2023-04-07T13:08:36;10.23;;;6.88;;
77507;SDS011;66618;42.666;23.360;2023-04-07T13:11:02;12.00;;;6.93;;
77507;SDS011;66618;42.666;23.360;2023-04-07T13:13:28;9.95;;;6.95;;
77507;SDS011;66618;42.666;23.360;2023-04-07T13:15:53;9.40;;;7.75;;
77507;SDS011;66618;42.666;23.360;2023-04-07T13:18:19;10.50;;;6.20;;
77507;SDS011;66618;42.666;23.360;2023-04-07T13:20:45;9.63;;;6.72;;
77507;SDS011;66618;42.666;23.360;2023-04-07T13:23:10;9.10;;;6.57;;
77507;SDS011;66618;42.666;23.360;2023-04-07T13:25:36;11.35;;;6.85;;
77507;SDS011;66618;42.666;23.360;2023-04-07T13:28:01;10.23;;;7.18;;
77507;SDS011;66618;42.666;23.360;2023-04-07T13:30:27;10.80;;;6.35;;
77507;SDS011;66618;42.666;23.360;2023-04-07T13:32:52;10.20;;;6.85;;
77507;SDS011;66618;42.666;23.360;2023-04-07T13:35:18;9.95;;;6.70;;
77507;SDS011;66618;42.666;23.360;2023-04-07T13:37:43;9.55;;;6.78;;
77507;SDS011;66618;42.666;23.360;2023-04-07T13:40:09;10.18;;;7.45;;
77507;SDS011;66618;42.666;23.360;2023-04-07T13:42:36;10.68;;;6.93;;
77507;SDS011;66618;42.666;23.360;2023-04-07T13:45:02;9.38;;;7.25;;
77507;SDS011;66618;42.666;23.360;2023-04-07T13:47:29;12.38;;;7.45;;
77507;SDS011;66618;42.666;23.360;2023-04-07T13:49:58;10.60;;;6.82;;
77507;SDS011;66618;42.666;23.360;2023-04-07T13:52:24;11.00;;;7.47;;
77507;SDS011;66618;42.666;23.360;2023-04-07T13:54:49;8.80;;;6.25;;
77507;SDS011;66618;42.666;23.360;2023-04-07T13:57:15;8.77;;;6.53;;
77507;SDS011;66618;42.666;23.360;2023-04-07T13:59:44;9.45;;;6.85;;
77507;SDS011;66618;42.666;23.360;2023-04-07T14:02:10;10.45;;;6.28;;
77507;SDS011;66618;42.666;23.360;2023-04-07T14:04:36;10.57;;;6.75;;
77507;SDS011;66618;42.666;23.360;2023-04-07T14:07:01;10.38;;;7.00;;
77507;SDS011;66618;42.666;23.360;2023-04-07T14:09:27;10.95;;;7.13;;
77507;SDS011;66618;42.666;23.360;2023-04-07T14:11:53;9.35;;;6.72;;
77507;SDS011;66618;42.666;23.360;2023-04-07T14:14:18;11.93;;;7.30;;
77507;SDS011;66618;42.666;23.360;2023-04-07T14:16:43;10.43;;;7.30;;
77507;SDS011;66618;42.666;23.360;2023-04-07T14:19:09;10.55;;;6.80;;
77507;SDS011;66618;42.666;23.360;2023-04-07T14:21:34;10.57;;;7.25;;
77507;SDS011;66618;42.666;23.360;2023-04-07T14:23:59;10.65;;;7.30;;
77507;SDS011;66618;42.666;23.360;2023-04-07T14:26:25;10.88;;;6.60;;
77507;SDS011;66618;42.666;23.360;2023-04-07T14:28:51;10.75;;;6.82;;
77507;SDS011;66618;42.666;23.360;2023-04-07T14:31:16;11.93;;;7.07;;
77507;SDS011;66618;42.666;23.360;2023-04-07T14:33:42;10.60;;;6.97;;
77507;SDS011;66618;42.666;23.360;2023-04-07T14:36:08;10.43;;;7.07;;
77507;SDS011;66618;42.666;23.360;2023-04-07T14:38:33;9.57;;;6.35;;
77507;SDS011;66618;42.666;23.360;2023-04-07T14:40:59;10.07;;;6.75;;